Time;durP1;ratioP1;P1;durP2;ratioP2;P2;SDS_P1;SDS_P2;PMS_P1;PMS_P2;Temp;Humidity;BMP_temperature;BMP_pressure;BME280_temperature;BME280_humidity;BME280_pressure;Samples;Min_cycle;Max_cycle;Signal;HPM_P1;HPM_P2
2022/05/08 00:01:37;;;;;;;11.07;5.78;;;;;;;-142.75;100.00;78206.44;4995860;28;20027;-70
2022/05/08 00:04:03;;;;;;;15.75;6.80;;;;;;;-142.75;100.00;78212.34;5013443;28;20028;-70
2022/05/08 00:06:28;;;;;;;9.52;6.00;;;;;;;-142.75;100.00;78218.25;4995796;28;20038;-70
2022/05/08 00:08:53;;;;;;;9.50;5.82;;;;;;;-142.75;100.00;78218.25;5013115;28;20029;-70
2022/05/08 00:11:19;;;;;;;12.05;6.13;;;;;;;-142.75;100.00;78218.25;4995865;28;20021;-71
2022/05/08 00:13:45;;;;;;;13.30;5.90;;;;;;;-142.75;100.00;78220.22;4995712;28;20026;-69
2022/05/08 00:16:11;;;;;;;11.10;5.57;;;;;;;-142.75;100.00;78220.22;5013196;28;20036;-69
2022/05/08 00:18:36;;;;;;;10.77;5.80;;;;;;;-142.75;100.00;78220.22;5012970;28;20033;-69
2022/05/08 00:21:02;;;;;;;11.55;5.55;;;;;;;-142.75;100.00;78216.28;5013205;28;20022;-68
2022/05/08 00:23:27;;;;;;;11.50;5.05;;;;;;;-142.75;100.00;78216.28;5013098;28;20113;-69
2022/05/08 00:25:52;;;;;;;12.27;5.03;;;;;;;-142.75;100.00;78216.28;5013129;28;20034;-70
2022/05/08 00:28:18;;;;;;;10.88;4.80;;;;;;;-142.75;100.00;78224.16;5012741;28;20040;-69
2022/05/08 00:30:43;;;;;;;10.90;4.75;;;;;;;-142.75;100.00;78224.16;5012908;28;20022;-70
2022/05/08 00:33:08;;;;;;;12.25;4.78;;;;;;;-142.75;100.00;78228.09;5012900;28;20061;-69
2022/05/08 00:35:33;;;;;;;12.85;5.18;;;;;;;-142.75;100.00;78235.97;4995368;28;20495;-69
2022/05/08 00:37:59;;;;;;;;;;;;;;;-142.75;100.00;78235.97;5012958;28;20037;-70
2022/05/08 00:40:24;;;;;;;13.60;4.95;;;;;;;-142.75;100.00;78239.91;5012634;28;19913;-69
2022/05/08 00:42:49;;;;;;;12.88;4.80;;;;;;;-142.75;100.00;78245.81;4995137;28;20038;-69
2022/05/08 00:45:14;;;;;;;10.10;4.70;;;;;;;-142.75;100.00;78243.84;5012767;28;20105;-69
2022/05/08 00:47:40;;;;;;;13.73;4.65;;;;;;;-142.75;100.00;78251.72;5012366;28;20443;-69
2022/05/08 00:50:06;;;;;;;11.02;4.25;;;;;;;-142.75;100.00;78255.66;5012383;28;20476;-69
2022/05/08 00:52:34;;;;;;;19.98;4.60;;;;;;;-142.75;100.00;78259.59;5012646;28;20426;-68
2022/05/08 00:55:00;;;;;;;15.00;4.82;;;;;;;-142.75;100.00;78265.50;5012563;28;20025;-69
2022/05/08 00:57:26;;;;;;;10.27;4.40;;;;;;;-142.75;100.00;78267.47;5012481;28;20033;-70
2022/05/08 00:59:51;;;;;;;;;;;;;;;-142.75;100.00;78273.38;5042291;23;20041;-65
2022/05/08 01:02:17;;;;;;;10.55;4.60;;;;;;;-142.75;100.00;78263.53;5033635;28;19924;-66
2022/05/08 01:04:42;;;;;;;;;;;;;;;-142.75;100.00;78279.28;5031648;28;20527;-68
2022/05/08 01:07:07;;;;;;;9.70;4.13;;;;;;;-142.75;100.00;78285.19;5048065;28;19924;-68
2022/05/08 01:09:33;;;;;;;10.32;4.43;;;;;;;-142.75;100.00;78287.16;5032218;28;20056;-68
2022/05/08 01:11:58;;;;;;;16.08;4.80;;;;;;;-142.75;100.00;78285.19;5032589;28;20475;-69
2022/05/08 01:14:23;;;;;;;14.05;5.50;;;;;;;-142.75;100.00;78287.16;5032557;28;20106;-69
2022/05/08 01:16:49;;;;;;;14.30;5.35;;;;;;;-142.75;100.00;78285.19;5032530;28;20028;-68
2022/05/08 01:19:15;;;;;;;17.65;4.55;;;;;;;-142.75;100.00;78287.16;5030506;28;20029;-68
2022/05/08 01:21:42;;;;;;;12.65;5.13;;;;;;;-142.75;100.00;78295.06;5032185;28;20029;-68
2022/05/08 01:24:15;;;;;;;12.57;4.95;;;;;;;-142.75;100.00;78291.09;5032193;28;20033;-68
2022/05/08 01:26:41;;;;;;;13.70;4.68;;;;;;;-142.75;100.00;78295.06;5030947;28;20119;-68
2022/05/08 01:29:06;;;;;;;17.35;5.22;;;;;;;-142.75;100.00;78299.00;5030391;28;20497;-68
2022/05/08 01:31:33;;;;;;;14.02;5.13;;;;;;;-142.75;100.00;78295.06;5031848;28;20017;-68
2022/05/08 01:33:58;;;;;;;14.38;5.20;;;;;;;-142.75;100.00;78291.09;5031720;28;20121;-68
2022/05/08 01:36:24;;;;;;;10.38;4.63;;;;;;;-142.75;100.00;78287.16;5031972;28;20096;-68
2022/05/08 01:38:50;;;;;;;17.40;5.50;;;;;;;-142.75;100.00;78293.06;5031544;28;21468;-69
2022/05/08 01:41:15;;;;;;;12.25;4.88;;;;;;;-142.75;100.00;78297.00;5031787;28;20026;-68
2022/05/08 01:43:41;;;;;;;13.93;5.20;;;;;;;-142.75;100.00;78295.06;5032028;28;20026;-66
2022/05/08 01:46:07;;;;;;;21.67;5.25;;;;;;;-142.75;100.00;78297.00;5031575;28;20537;-68
2022/05/08 01:48:34;;;;;;;14.35;4.60;;;;;;;-142.75;100.00;78322.63;5029961;28;20045;-68
2022/05/08 01:51:02;;;;;;;8.95;4.90;;;;;;;-142.75;100.00;78310.81;5031817;28;20435;-68
2022/05/08 01:53:31;;;;;;;10.65;5.10;;;;;;;-142.75;100.00;78318.69;5031617;28;20029;-68
2022/05/08 01:55:57;;;;;;;14.75;5.05;;;;;;;-142.75;100.00;78324.59;5031603;28;20025;-68
2022/05/08 01:58:27;;;;;;;11.90;5.63;;;;;;;-142.75;100.00;78338.38;5030891;28;20023;-66
2022/05/08 02:00:54;;;;;;;11.45;5.30;;;;;;;-142.75;100.00;78346.25;5032433;28;20025;-68
2022/05/08 02:03:20;;;;;;;11.82;5.43;;;;;;;-142.75;100.00;78350.19;5033463;28;20450;-69
2022/05/08 02:05:46;;;;;;;16.38;5.13;;;;;;;-142.75;100.00;78358.06;5031551;28;20029;-68
2022/05/08 02:08:12;;;;;;;11.43;5.75;;;;;;;-142.75;100.00;78377.75;5031107;28;20483;-69
2022/05/08 02:10:38;;;;;;;13.43;5.13;;;;;;;-142.75;100.00;78379.72;5031189;28;20022;-68
2022/05/08 02:13:03;;;;;;;13.57;5.47;;;;;;;-142.75;100.00;78381.69;5031228;28;20483;-69
2022/05/08 02:15:29;;;;;;;14.30;5.40;;;;;;;-142.75;100.00;78377.75;5030657;28;20026;-68
2022/05/08 02:17:59;;;;;;;15.63;6.05;;;;;;;-142.75;100.00;78381.69;5031109;28;20060;-67
2022/05/08 02:20:24;;;;;;;10.77;5.18;;;;;;;-142.75;100.00;78399.44;5029895;28;20029;-68
2022/05/08 02:22:50;;;;;;;12.15;5.47;;;;;;;-142.75;100.00;78403.38;5031175;28;20033;-68
2022/05/08 02:25:15;;;;;;;17.58;6.30;;;;;;;-142.75;100.00;78417.16;5031201;28;20104;-68
2022/05/08 02:27:41;;;;;;;13.23;6.00;;;;;;;-142.75;100.00;78428.97;5031029;28;20030;-68
2022/05/08 02:30:11;;;;;;;16.27;5.55;;;;;;;-142.75;100.00;78438.81;5030582;28;20030;-68
2022/05/08 02:32:38;;;;;;;12.48;4.65;;;;;;;-142.75;100.00;78446.69;5030910;28;20487;-68
2022/05/08 02:35:07;;;;;;;11.27;4.57;;;;;;;-142.75;100.00;78460.47;5031077;28;20030;-68
2022/05/08 02:37:34;;;;;;;15.45;4.03;;;;;;;-142.75;100.00;78468.34;5030874;28;20057;-68
2022/05/08 02:39:59;;;;;;;13.55;4.30;;;;;;;-142.75;100.00;78470.31;5030462;28;20028;-68
2022/05/08 02:42:26;;;;;;;16.55;4.07;;;;;;;-142.75;100.00;78472.28;5029672;28;20491;-68
2022/05/08 02:44:51;;;;;;;12.60;3.35;;;;;;;-142.75;100.00;78476.22;5030778;28;20021;-68
2022/05/08 02:47:16;;;;;;;12.23;2.42;;;;;;;-142.75;100.00;78486.06;5030816;28;20540;-68
2022/05/08 02:49:42;;;;;;;13.05;2.42;;;;;;;-142.75;100.00;78491.97;5030688;28;20474;-68
2022/05/08 02:52:07;;;;;;;15.43;2.97;;;;;;;-142.75;100.00;78495.94;5030732;28;20018;-68
2022/05/08 02:54:32;;;;;;;17.27;3.33;;;;;;;-142.75;100.00;78503.81;5030887;28;20526;-68
2022/05/08 02:59:41;;;;;;;12.70;2.25;;;;;;;-142.75;100.00;78511.69;5030555;28;20052;-68
2022/05/08 03:02:07;;;;;;;15.48;2.65;;;;;;;-142.75;100.00;78535.31;5029454;28;20025;-68
2022/05/08 03:04:33;;;;;;;10.98;2.40;;;;;;;-142.75;100.00;78533.34;5029327;28;20372;-68
2022/05/08 03:06:58;;;;;;;9.13;2.20;;;;;;;-142.75;100.00;78535.31;5030802;28;20025;-68
2022/05/08 03:09:23;;;;;;;16.35;2.72;;;;;;;-142.75;100.00;78545.16;5030410;28;20101;-68
2022/05/08 03:11:48;;;;;;;17.30;3.47;;;;;;;-142.75;100.00;78539.25;5030572;28;20013;-68
2022/05/08 03:14:14;;;;;;;17.85;3.00;;;;;;;-142.75;100.00;78543.19;5030625;28;20764;-68
2022/05/08 03:16:40;;;;;;;13.45;2.50;;;;;;;-142.75;100.00;78539.25;5030806;28;20025;-68
2022/05/08 03:19:05;;;;;;;13.02;2.10;;;;;;;-142.75;100.00;78556.97;5030329;28;20076;-68
2022/05/08 03:21:31;;;;;;;15.40;3.30;;;;;;;-142.75;100.00;78558.94;5029951;28;20052;-68
2022/05/08 03:23:56;;;;;;;14.48;2.63;;;;;;;-142.75;100.00;78562.88;5030751;28;20029;-68
2022/05/08 03:26:22;;;;;;;11.02;2.78;;;;;;;-142.75;100.00;78578.63;5030904;28;20656;-68
2022/05/08 03:28:47;;;;;;;9.63;2.33;;;;;;;-142.75;100.00;78586.53;5033958;28;20052;-68
2022/05/08 03:31:13;;;;;;;13.45;2.40;;;;;;;-142.75;100.00;78582.59;5034087;28;20022;-68
2022/05/08 03:33:39;;;;;;;16.63;2.88;;;;;;;-142.75;100.00;78590.47;5034117;28;20036;-69
2022/05/08 03:36:05;;;;;;;;;;;;;;;-142.75;100.00;78590.47;5034649;28;20025;-68
2022/05/08 03:38:31;;;;;;;17.37;2.47;;;;;;;-142.75;100.00;78602.28;5033772;28;19913;-68
2022/05/08 03:40:56;;;;;;;17.98;2.92;;;;;;;-142.75;100.00;78600.31;5032615;28;20497;-68
2022/05/08 03:43:23;;;;;;;13.20;2.42;;;;;;;-142.75;100.00;78614.09;5034145;28;20053;-68
2022/05/08 03:45:51;;;;;;;;;;;;;;;-142.75;100.00;78618.03;5035229;28;20115;-68
2022/05/08 03:48:18;;;;;;;19.25;2.72;;;;;;;-142.75;100.00;78641.66;5033686;28;19912;-68
2022/05/08 03:50:44;;;;;;;12.40;2.90;;;;;;;-142.75;100.00;78645.59;5034115;28;20037;-68
2022/05/08 03:53:10;;;;;;;15.32;2.35;;;;;;;-142.75;100.00;78651.50;5034139;28;20151;-68
2022/05/08 03:55:36;;;;;;;7.50;2.30;;;;;;;-142.75;100.00;78657.41;5032699;28;20029;-68
2022/05/08 03:58:01;;;;;;;11.68;2.92;;;;;;;-142.75;100.00;78653.47;5032296;28;20104;-68
2022/05/08 04:00:27;;;;;;;19.60;2.67;;;;;;;-142.75;100.00;78665.28;5034816;28;20025;-67
2022/05/08 04:02:53;;;;;;;14.70;2.87;;;;;;;-142.75;100.00;78673.19;5034733;28;20051;-69
2022/05/08 04:05:19;;;;;;;11.02;2.70;;;;;;;-142.75;100.00;78690.91;5033578;28;20542;-68
2022/05/08 04:07:45;;;;;;;16.10;2.33;;;;;;;-142.75;100.00;78685.00;5033527;28;20096;-68
2022/05/08 04:10:10;;;;;;;14.55;2.60;;;;;;;-142.75;100.00;78688.94;5033119;28;20029;-68
2022/05/08 04:12:36;;;;;;;14.90;2.85;;;;;;;-142.75;100.00;78694.84;5033442;28;20545;-68
2022/05/08 04:15:03;;;;;;;;;;;;;;;-142.75;100.00;78702.72;5033945;28;20025;-68
2022/05/08 04:17:28;;;;;;;9.52;2.58;;;;;;;-142.75;100.00;78694.84;5033478;28;19939;-68
2022/05/08 04:19:57;;;;;;;18.77;3.38;;;;;;;-142.75;100.00;78704.69;5033027;28;20021;-68
2022/05/08 04:25:08;;;;;;;12.40;2.53;;;;;;;-142.75;100.00;78704.69;5033513;28;20045;-69
2022/05/08 04:27:35;;;;;;;10.77;2.97;;;;;;;-142.75;100.00;78708.63;5033130;28;20025;-69
2022/05/08 04:30:01;;;;;;;12.30;2.43;;;;;;;-142.75;100.00;78716.50;5032876;28;20029;-68
2022/05/08 04:32:26;;;;;;;14.50;2.75;;;;;;;-142.75;100.00;78714.53;5033238;28;20013;-67
2022/05/08 04:34:52;;;;;;;15.45;2.78;;;;;;;-142.75;100.00;78724.38;5033195;28;20562;-68
2022/05/08 04:37:17;;;;;;;12.05;2.38;;;;;;;-142.75;100.00;78724.38;5032955;28;20032;-68
2022/05/08 04:39:42;;;;;;;12.85;2.88;;;;;;;-142.75;100.00;78722.41;5031970;28;20029;-68
2022/05/08 04:42:08;;;;;;;14.67;2.90;;;;;;;-142.75;100.00;78732.25;5032925;28;20021;-68
2022/05/08 04:44:33;;;;;;;23.52;3.53;;;;;;;-142.75;100.00;78720.44;5032997;28;20272;-68
2022/05/08 04:46:58;;;;;;;10.70;2.80;;;;;;;-142.75;100.00;78720.44;5033109;28;20499;-68
2022/05/08 04:49:24;;;;;;;14.80;2.40;;;;;;;-142.75;100.00;78716.50;5032569;28;20275;-68
2022/05/08 04:51:49;;;;;;;13.50;2.80;;;;;;;-142.75;100.00;78696.81;5032446;28;20276;-69
2022/05/08 04:54:14;;;;;;;11.13;3.13;;;;;;;-142.75;100.00;78690.91;5032719;28;20326;-68
2022/05/08 04:56:40;;;;;;;17.17;3.05;;;;;;;-142.75;100.00;78688.94;5032748;28;20276;-68
2022/05/08 04:59:05;;;;;;;19.10;3.05;;;;;;;-142.75;100.00;78683.03;5032252;28;20462;-68
2022/05/08 05:01:30;;;;;;;16.02;2.85;;;;;;;-142.75;100.00;78679.09;5031322;28;20029;-68
2022/05/08 05:03:56;;;;;;;11.50;2.95;;;;;;;-142.75;100.00;78661.34;5032645;28;20032;-68
2022/05/08 05:06:21;;;;;;;14.68;2.33;;;;;;;-142.75;100.00;78649.53;5031107;28;20163;-68
2022/05/08 05:08:46;;;;;;;14.73;2.97;;;;;;;-142.75;100.00;78649.53;5032272;28;20036;-67
2022/05/08 05:11:12;;;;;;;15.17;2.67;;;;;;;-142.75;100.00;78641.66;5032447;28;20475;-68
2022/05/08 05:13:38;;;;;;;13.25;3.33;;;;;;;-142.75;100.00;78633.78;5032509;28;20300;-68
2022/05/08 05:16:04;;;;;;;15.60;2.92;;;;;;;-142.75;100.00;78616.06;5032288;28;20026;-68
2022/05/08 05:18:29;;;;;;;16.30;2.92;;;;;;;-142.75;100.00;78614.09;5032050;28;20078;-68
2022/05/08 05:20:55;;;;;;;12.13;2.90;;;;;;;-142.75;100.00;78606.22;5032151;28;20124;-68
2022/05/08 05:23:20;;;;;;;8.50;1.77;;;;;;;-142.75;100.00;78600.31;5032486;28;20280;-68
2022/05/08 05:25:45;;;;;;;18.92;2.58;;;;;;;-142.75;100.00;78578.63;5030793;28;20025;-68
2022/05/08 05:28:11;;;;;;;11.70;2.70;;;;;;;-142.75;100.00;78578.63;5031933;28;20025;-68
2022/05/08 05:30:36;;;;;;;13.80;2.47;;;;;;;-142.75;100.00;78558.94;5032210;28;20450;-68
2022/05/08 05:33:02;;;;;;;7.85;2.13;;;;;;;-142.75;100.00;78555.00;5030856;28;20029;-68
2022/05/08 05:35:27;;;;;;;17.00;3.15;;;;;;;-142.75;100.00;78537.28;5032044;28;20037;-68
2022/05/08 05:37:52;;;;;;;11.48;2.55;;;;;;;-142.75;100.00;78535.31;5031823;28;20021;-67
2022/05/08 05:40:18;;;;;;;13.40;3.55;;;;;;;-142.75;100.00;78523.50;5032062;28;20066;-69
2022/05/08 05:42:43;;;;;;;14.60;3.17;;;;;;;-142.75;100.00;78515.63;5031846;28;20387;-69
2022/05/08 05:45:09;;;;;;;13.90;2.10;;;;;;;-142.75;100.00;78515.63;5031899;28;20025;-68
2022/05/08 05:47:49;;;;;;;16.85;2.92;;;;;;;-142.75;100.00;78493.97;5030486;28;20418;-68
2022/05/08 05:50:15;;;;;;;18.33;3.17;;;;;;;-142.75;100.00;78488.03;5029468;28;20040;-68
2022/05/08 05:52:40;;;;;;;9.55;2.10;;;;;;;-142.75;100.00;78482.13;5031902;28;20096;-68
2022/05/08 05:55:06;;;;;;;16.35;2.63;;;;;;;-142.75;100.00;78484.09;5030548;28;20119;-68
2022/05/08 05:57:39;;;;;;;10.05;2.10;;;;;;;-142.75;100.00;78464.41;5031791;28;20483;-68
2022/05/08 06:00:11;;;;;;;11.68;2.30;;;;;;;-142.75;100.00;78452.59;5033022;28;20021;-68
2022/05/08 06:02:37;;;;;;;15.52;2.63;;;;;;;-142.75;100.00;78440.78;5032298;28;20548;-68
2022/05/08 06:05:04;;;;;;;6.50;1.73;;;;;;;-142.75;100.00;78444.72;5031422;28;20471;-69
2022/05/08 06:07:29;;;;;;;10.38;2.92;;;;;;;-142.75;100.00;78430.94;5031458;28;20071;-68
2022/05/08 06:09:54;;;;;;;11.52;2.20;;;;;;;-142.75;100.00;78434.88;5031318;28;20029;-68
2022/05/08 06:12:19;;;;;;;15.67;2.20;;;;;;;-142.75;100.00;78417.16;5030395;28;20360;-68
2022/05/08 06:14:46;;;;;;;8.73;2.57;;;;;;;-142.75;100.00;78377.75;5031463;28;20279;-68
2022/05/08 06:17:12;;;;;;;14.48;2.92;;;;;;;-142.75;100.00;78352.16;5031062;28;20272;-68
2022/05/08 06:19:37;;;;;;;13.65;2.33;;;;;;;-142.75;100.00;78344.28;5031304;28;20028;-68
2022/05/08 06:22:02;;;;;;;17.60;3.15;;;;;;;-142.75;100.00;78326.56;5031099;28;20380;-68
2022/05/08 06:24:28;;;;;;;11.45;2.10;;;;;;;-142.75;100.00;78310.81;5031223;28;20086;-68
2022/05/08 06:26:54;;;;;;;11.90;2.15;;;;;;;-142.75;100.00;78291.09;5031422;28;20017;-68
2022/05/08 06:29:19;;;;;;;14.45;2.38;;;;;;;-142.75;100.00;78271.41;5030986;28;20078;-68
2022/05/08 06:31:46;;;;;;;12.87;2.27;;;;;;;-142.75;100.00;78249.75;5029955;28;20030;-68
2022/05/08 06:34:12;;;;;;;11.48;2.33;;;;;;;-142.75;100.00;78275.34;5031210;28;20820;-68
2022/05/08 06:36:37;;;;;;;16.05;2.30;;;;;;;-142.75;100.00;78243.84;5031300;28;20033;-68
2022/05/08 06:39:03;;;;;;;10.80;2.25;;;;;;;-142.75;100.00;78251.72;5030872;28;20048;-68
2022/05/08 06:41:28;;;;;;;8.77;1.77;;;;;;;-142.75;100.00;78255.66;5031184;28;20545;-69
2022/05/08 06:43:53;;;;;;;12.13;2.00;;;;;;;-142.75;100.00;78261.56;5031182;28;20031;-68
2022/05/08 06:46:19;;;;;;;;;;;;;;;-142.75;100.00;78239.91;5031472;28;20021;-68
2022/05/08 06:48:44;;;;;;;15.10;2.17;;;;;;;-142.75;100.00;78224.16;5028881;28;19959;-68
2022/05/08 06:51:11;;;;;;;13.95;2.92;;;;;;;-142.75;100.00;78212.34;5025582;28;20402;-68
2022/05/08 06:53:37;;;;;;;18.00;2.78;;;;;;;-142.75;100.00;78228.09;5025891;28;20055;-68
2022/05/08 06:56:03;;;;;;;12.65;2.33;;;;;;;-142.75;100.00;78206.44;5027370;28;20041;-69
2022/05/08 06:58:28;;;;;;;13.75;1.95;;;;;;;-142.75;100.00;78204.47;5028380;28;20033;-68
2022/05/08 07:03:39;;;;;;;16.00;2.60;;;;;;;-142.75;100.00;78200.53;5033463;28;20117;-68
2022/05/08 07:06:04;;;;;;;10.77;2.15;;;;;;;-142.75;100.00;78161.13;5034296;28;20117;-67
2022/05/08 07:08:30;;;;;;;15.75;2.25;;;;;;;-142.75;100.00;78204.47;5037501;28;20104;-67
2022/05/08 07:10:55;;;;;;;12.15;2.63;;;;;;;-142.75;100.00;78188.72;5038089;28;20024;-67
2022/05/08 07:13:25;;;;;;;;;;;;;;;-142.75;100.00;78180.81;5040460;28;20028;-67
2022/05/08 07:15:51;;;;;;;12.43;2.13;;;;;;;-142.75;100.00;78176.88;5038676;28;19913;-67
2022/05/08 07:18:18;;;;;;;14.80;2.33;;;;;;;-142.75;100.00;78161.13;5036178;28;20099;-66
2022/05/08 07:20:43;;;;;;;11.05;1.88;;;;;;;-142.75;100.00;78153.25;5048882;28;20095;-66
2022/05/08 07:23:08;;;;;;;10.00;1.92;;;;;;;-142.75;100.00;78149.31;5033972;28;20017;-66
2022/05/08 07:25:33;;;;;;;14.15;2.13;;;;;;;-142.75;100.00;78145.38;5032743;28;20021;-68
2022/05/08 07:27:59;;;;;;;13.85;2.40;;;;;;;-142.75;100.00;78107.97;5033515;28;20052;-67
2022/05/08 07:30:24;;;;;;;;;;;;;;;-142.75;100.00;78137.50;5035349;28;20029;-66
2022/05/08 07:32:49;;;;;;;12.23;1.63;;;;;;;-142.75;100.00;78078.44;5035717;28;19917;-67
2022/05/08 07:37:59;;;;;;;11.65;2.17;;;;;;;-142.75;100.00;78066.63;5032697;28;20008;-67
2022/05/08 07:40:26;;;;;;;9.90;2.67;;;;;;;-142.75;100.00;78090.25;5035608;28;20456;-67
2022/05/08 07:42:51;;;;;;;8.43;1.73;;;;;;;-142.75;100.00;78056.78;5052501;28;20025;-67
2022/05/08 07:45:17;;;;;;;8.13;1.70;;;;;;;-142.75;100.00;78011.47;5052652;28;20478;-66
2022/05/08 07:47:43;;;;;;;;;;;;;;;-142.75;100.00;77944.53;5052887;28;20025;-66
2022/05/08 07:50:08;;;;;;;12.82;1.80;;;;;;;-142.75;100.00;77920.91;5052456;28;19994;-67
2022/05/08 07:52:38;;;;;;;;;;;;;;;-142.75;100.00;77940.59;5052660;28;20438;-67
2022/05/08 07:55:04;;;;;;;14.23;3.05;;;;;;;-142.75;100.00;77934.69;5052431;28;19913;-67
2022/05/08 07:57:29;;;;;;;13.07;1.80;;;;;;;-142.75;100.00;78046.91;5052153;28;20102;-66
2022/05/08 07:59:54;;;;;;;;;;;;;;;-142.75;100.00;77995.72;5052412;28;20039;-68
2022/05/08 08:02:20;;;;;;;14.98;2.10;;;;;;;-142.75;100.00;77991.78;5052283;28;19974;-67
2022/05/08 08:04:45;;;;;;;;;;;;;;;-142.75;100.00;78019.34;5040040;28;20037;-67
2022/05/08 08:07:10;;;;;;;11.82;1.83;;;;;;;-142.75;100.00;78048.88;5030777;28;19920;-68
2022/05/08 08:09:36;;;;;;;;;;;;;;;-142.75;100.00;78007.53;5032383;28;20447;-68
2022/05/08 08:12:01;;;;;;;9.80;2.13;;;;;;;-142.75;100.00;77968.16;5030892;28;19970;-67
2022/05/08 08:14:26;;;;;;;;;;;;;;;-142.75;100.00;77950.44;5031726;28;20083;-67
2022/05/08 08:16:52;;;;;;;6.60;1.85;;;;;;;-142.75;100.00;77958.31;5031776;28;20374;-66
2022/05/08 08:19:17;;;;;;;10.50;1.75;;;;;;;-142.75;100.00;77918.94;5031945;28;20029;-67
2022/05/08 08:21:42;;;;;;;;;;;;;;;-142.75;100.00;77895.28;5031732;28;20030;-67
2022/05/08 08:24:08;;;;;;;10.05;2.33;;;;;;;-142.75;100.00;77857.88;5032014;28;19970;-68
2022/05/08 08:26:34;;;;;;;;;;;;;;;-142.75;100.00;77830.31;5032372;28;20116;-67
2022/05/08 08:28:59;;;;;;;9.25;1.80;;;;;;;-142.75;100.00;77855.91;5031518;28;20434;-67
2022/05/08 08:31:24;;;;;;;;;;;;;;;-142.75;100.00;77810.63;5032466;28;20022;-67
2022/05/08 08:33:49;;;;;;;17.60;2.38;;;;;;;-142.75;100.00;77790.94;5031743;28;20374;-67
2022/05/08 08:36:15;;;;;;;;;;;;;;;-142.75;100.00;77771.25;5035238;28;20494;-67
2022/05/08 08:38:40;;;;;;;13.10;1.88;;;;;;;-142.75;100.00;77765.34;5031572;28;19968;-67
2022/05/08 08:41:07;;;;;;;;;;;;;;;-142.75;100.00;77759.44;5031890;28;20025;-67
2022/05/08 08:49:09;;;;;;;9.23;1.98;;;;;;;-142.75;94.21;77655.06;5031449;28;20564;-67
2022/05/08 08:51:36;;;;;;;9.57;1.98;;;;;;;-142.75;93.86;77641.28;5031177;28;20029;-68
2022/05/08 08:54:03;;;;;;;10.38;2.58;;;;;;;-142.75;92.20;77633.41;5031626;28;20025;-67
2022/05/08 08:56:29;;;;;;;10.82;2.00;;;;;;;-142.75;89.95;77653.09;5031935;28;20029;-68
2022/05/08 08:58:54;;;;;;;;;;;;;;;-142.75;89.48;77607.81;5031424;28;20486;-67
2022/05/08 09:01:19;;;;;;;9.32;1.33;;;;;;;-142.75;86.63;77558.59;5031385;28;19920;-66
2022/05/08 09:03:44;;;;;;;;;;;;;;;-142.75;90.18;77538.91;5034757;28;20025;-68
2022/05/08 09:06:10;;;;;;;7.10;1.88;;;;;;;-142.75;87.10;77544.81;5050803;28;19959;-70
2022/05/08 09:08:38;;;;;;;;;;;;;;;-142.75;82.07;77554.66;5050572;28;20055;-66
2022/05/08 09:11:03;;;;;;;9.73;2.17;;;;;;;-142.75;82.38;77566.47;5050438;28;20004;-68
2022/05/08 09:13:30;;;;;;;11.95;2.03;;;;;;;-142.75;82.75;77550.72;5052065;28;20048;-68
2022/05/08 09:16:07;;;;;;;11.57;1.73;;;;;;;-142.75;82.99;77507.41;5052072;28;20035;-66
2022/05/08 09:18:43;;;;;;;10.52;2.10;;;;;;;-142.75;79.00;77519.22;5050164;28;20031;-67
2022/05/08 09:24:12;;;;;;;6.10;1.58;;;;;;;-142.75;80.18;77489.69;5051678;28;20047;-67
2022/05/08 09:26:38;;;;;;;10.45;2.00;;;;;;;-142.75;77.85;77483.78;5050664;28;20507;-67
2022/05/08 09:29:04;;;;;;;7.28;1.75;;;;;;;-142.75;78.17;77493.63;5051355;28;20143;-67
2022/05/08 09:31:41;;;;;;;9.13;1.77;;;;;;;-142.75;76.13;77479.84;5051997;28;20644;-66
2022/05/08 09:34:07;;;;;;;5.95;1.10;;;;;;;-142.75;77.64;77475.91;5050510;28;20115;-68
2022/05/08 09:36:33;;;;;;;8.98;1.58;;;;;;;-142.75;77.38;77503.47;5050046;28;20175;-67
2022/05/08 09:38:59;;;;;;;;;;;;;;;-142.75;75.44;77475.91;5051598;28;20039;-67
2022/05/08 09:41:27;;;;;;;8.32;1.33;;;;;;;-142.75;74.41;77440.44;5051400;28;19912;-68
2022/05/08 09:43:54;;;;;;;8.82;1.92;;;;;;;-142.75;70.58;77454.25;5051522;28;20036;-68
2022/05/08 09:46:20;;;;;;;10.43;1.80;;;;;;;-142.75;69.42;77442.41;5050165;28;20025;-66
2022/05/08 09:48:47;;;;;;;8.70;1.60;;;;;;;-142.75;72.26;77408.94;5051234;28;20479;-68
2022/05/08 09:51:15;;;;;;;6.47;1.73;;;;;;;-142.75;71.09;77448.34;5051037;28;20033;-68
2022/05/08 09:53:42;;;;;;;4.60;1.40;;;;;;;-142.75;72.82;77422.72;5051344;28;20056;-67
2022/05/08 09:56:10;;;;;;;10.57;2.00;;;;;;;-142.75;70.24;77393.19;5051160;28;20029;-67
2022/05/08 09:58:36;;;;;;;10.32;1.77;;;;;;;-142.75;68.69;77379.41;5049823;28;20214;-67
2022/05/08 10:01:02;;;;;;;7.07;1.95;;;;;;;-142.75;66.84;77446.34;5050819;28;20059;-67
2022/05/08 10:03:29;;;;;;;9.93;1.55;;;;;;;-142.75;69.60;77420.75;5051252;28;20482;-67
2022/05/08 10:05:55;;;;;;;4.78;1.23;;;;;;;-142.75;71.65;77347.91;5050896;28;20025;-67
2022/05/08 10:08:26;;;;;;;3.78;1.27;;;;;;;-142.75;67.59;77361.69;5050746;28;20482;-66
2022/05/08 10:13:57;;;;;;;7.32;1.80;;;;;;;-142.75;65.95;77340.03;5051273;28;20548;-68
2022/05/08 10:16:45;;;;;;;12.27;1.77;;;;;;;-142.75;69.87;77298.69;5050934;28;20020;-67
2022/05/08 10:19:16;;;;;;;11.20;2.17;;;;;;;-142.75;69.47;77239.63;5050340;28;20067;-68
2022/05/08 10:21:55;;;;;;;11.93;2.72;;;;;;;-142.75;68.51;77208.13;5050269;28;20033;-67
2022/05/08 10:24:38;;;;;;;6.32;1.60;;;;;;;-142.75;67.36;77231.75;5049808;28;20033;-67
2022/05/08 10:27:18;;;;;;;6.78;1.70;;;;;;;-142.75;65.21;77277.03;5050777;28;20074;-68
2022/05/08 10:29:50;;;;;;;7.80;1.77;;;;;;;-142.75;65.65;77263.25;5048878;28;20567;-67
2022/05/08 10:32:33;;;;;;;5.70;1.42;;;;;;;-142.75;66.19;77247.50;5050426;28;20047;-67
2022/05/08 10:35:11;;;;;;;9.77;1.67;;;;;;;-142.75;66.20;77294.75;5050456;28;20021;-67
2022/05/08 10:37:37;;;;;;;5.80;1.50;;;;;;;-142.75;66.63;77302.63;5050029;28;20509;-67
2022/05/08 10:40:03;;;;;;;7.88;1.30;;;;;;;-142.75;64.89;77318.38;5050497;28;20024;-67
2022/05/08 10:42:39;;;;;;;6.22;1.65;;;;;;;-142.75;69.13;77290.81;5049288;28;20025;-68
2022/05/08 10:45:05;;;;;;;7.55;1.65;;;;;;;-142.75;67.02;77263.25;5050651;28;20561;-68
2022/05/08 10:47:33;;;;;;;10.65;1.83;;;;;;;-142.75;64.16;77279.00;5050557;28;20060;-68
2022/05/08 10:50:07;;;;;;;8.65;1.40;;;;;;;-142.75;66.15;77225.84;5050213;28;20111;-68
2022/05/08 10:52:37;;;;;;;4.50;1.52;;;;;;;-142.75;65.32;77233.72;5050635;28;20033;-68
2022/05/08 10:55:05;;;;;;;5.60;1.20;;;;;;;-142.75;63.83;77196.31;5050561;28;20025;-67
2022/05/08 10:57:33;;;;;;;10.15;1.25;;;;;;;-142.75;65.81;77143.16;5050400;28;20029;-67
2022/05/08 10:59:59;;;;;;;7.53;1.52;;;;;;;-142.75;67.26;77121.50;5050256;28;20470;-68
2022/05/08 11:02:43;;;;;;;4.65;1.50;;;;;;;-142.75;61.93;77196.31;5050165;28;20017;-69
2022/05/08 11:05:10;;;;;;;7.97;1.48;;;;;;;-142.75;62.83;77154.97;5049990;28;20033;-68
2022/05/08 11:07:46;;;;;;;7.15;1.25;;;;;;;-142.75;63.06;77137.25;5048991;28;20025;-68
2022/05/08 11:10:18;;;;;;;;;;;;;;;-142.75;63.42;77194.34;5050155;28;20033;-67
2022/05/08 11:13:06;;;;;;;5.95;1.48;;;;;;;-142.75;64.29;77133.31;5050369;28;19971;-68
2022/05/08 11:15:36;;;;;;;7.63;1.65;;;;;;;-142.75;61.96;77168.75;5050159;28;20021;-69
2022/05/08 11:18:07;;;;;;;6.40;1.50;;;;;;;-142.75;61.68;77135.28;5050098;28;20025;-69
2022/05/08 11:20:34;;;;;;;6.25;1.30;;;;;;;-142.75;65.58;77137.25;5049993;28;20025;-68
2022/05/08 11:22:59;;;;;;;8.02;1.90;;;;;;;-142.75;62.49;77200.25;5050324;28;20052;-68
2022/05/08 11:25:25;;;;;;;11.95;1.67;;;;;;;-142.75;63.36;77131.34;5050427;28;20108;-68
2022/05/08 11:27:51;;;;;;;10.23;1.90;;;;;;;-142.75;63.24;77125.44;5050027;28;20028;-67
2022/05/08 11:30:27;;;;;;;5.85;1.58;;;;;;;-142.75;64.60;77137.25;5048739;28;20102;-67
2022/05/08 11:38:20;;;;;;;6.65;1.50;;;;;;;-142.75;63.92;77133.31;5049640;28;20536;-69